sensor_id;sensor_type;location;lat;lon;timestamp;pressure;altitude;pressure_sealevel;temperature;humidity
38786;BME280;24535;45.508;12.252;2024-03-17T00:01:40;102099.44;;;16.62;62.89
38786;BME280;24535;45.508;12.252;2024-03-17T00:04:15;102107.31;;;16.64;63.11
38786;BME280;24535;45.508;12.252;2024-03-17T00:06:41;102108.16;;;16.64;63.37
38786;BME280;24535;45.508;12.252;2024-03-17T00:09:12;102105.50;;;16.64;62.78
38786;BME280;24535;45.508;12.252;2024-03-17T00:11:44;102106.34;;;16.65;62.52
38786;BME280;24535;45.508;12.252;2024-03-17T00:14:10;102105.59;;;16.63;62.74
38786;BME280;24535;45.508;12.252;2024-03-17T00:19:11;102101.47;;;16.59;62.61
38786;BME280;24535;45.508;12.252;2024-03-17T00:27:43;102114.66;;;16.60;63.00
38786;BME280;24535;45.508;12.252;2024-03-17T00:38:01;102121.91;;;16.58;62.25
38786;BME280;24535;45.508;12.252;2024-03-17T00:43:11;102117.75;;;16.54;62.71
38786;BME280;24535;45.508;12.252;2024-03-17T00:45:52;102118.47;;;16.56;62.92
38786;BME280;24535;45.508;12.252;2024-03-17T00:56:09;102103.69;;;16.52;62.25
38786;BME280;24535;45.508;12.252;2024-03-17T00:58:35;102095.84;;;16.50;62.74
38786;BME280;24535;45.508;12.252;2024-03-17T01:01:00;102098.50;;;16.50;62.25
38786;BME280;24535;45.508;12.252;2024-03-17T01:03:26;102097.66;;;16.50;62.58
38786;BME280;24535;45.508;12.252;2024-03-17T01:05:53;102091.47;;;16.49;62.65
38786;BME280;24535;45.508;12.252;2024-03-17T01:08:19;102097.53;;;16.51;62.45
38786;BME280;24535;45.508;12.252;2024-03-17T01:10:57;102092.53;;;16.47;62.35
38786;BME280;24535;45.508;12.252;2024-03-17T01:13:24;102092.19;;;16.51;62.68
38786;BME280;24535;45.508;12.252;2024-03-17T01:15:58;102089.66;;;16.50;62.12
38786;BME280;24535;45.508;12.252;2024-03-17T01:18:37;102094.13;;;16.49;61.90
38786;BME280;24535;45.508;12.252;2024-03-17T01:21:04;102092.41;;;16.48;62.36
38786;BME280;24535;45.508;12.252;2024-03-17T01:23:35;102094.03;;;16.51;61.86
38786;BME280;24535;45.508;12.252;2024-03-17T01:26:14;102085.59;;;16.44;62.51
38786;BME280;24535;45.508;12.252;2024-03-17T01:28:40;102093.38;;;16.47;62.13
38786;BME280;24535;45.508;12.252;2024-03-17T01:31:06;102094.13;;;16.49;62.26
38786;BME280;24535;45.508;12.252;2024-03-17T01:33:31;102085.59;;;16.44;62.51
38786;BME280;24535;45.508;12.252;2024-03-17T01:35:57;102083.06;;;16.43;62.17
38786;BME280;24535;45.508;12.252;2024-03-17T01:38:25;102088.06;;;16.47;62.09
38786;BME280;24535;45.508;12.252;2024-03-17T01:40:53;102074.97;;;16.44;62.21
38786;BME280;24535;45.508;12.252;2024-03-17T01:43:26;102067.94;;;16.43;62.29
38786;BME280;24535;45.508;12.252;2024-03-17T01:45:52;102071.47;;;16.44;62.05
38786;BME280;24535;45.508;12.252;2024-03-17T01:48:17;102085.72;;;16.43;62.27
38786;BME280;24535;45.508;12.252;2024-03-17T01:50:56;102083.06;;;16.43;61.72
38786;BME280;24535;45.508;12.252;2024-03-17T01:53:23;102079.69;;;16.41;61.67
38786;BME280;24535;45.508;12.252;2024-03-17T01:55:58;102090.06;;;16.44;62.35
38786;BME280;24535;45.508;12.252;2024-03-17T01:58:32;102074.34;;;16.41;61.72
38786;BME280;24535;45.508;12.252;2024-03-17T02:01:01;102080.53;;;16.41;61.49
38786;BME280;24535;45.508;12.252;2024-03-17T02:03:26;102078.72;;;16.42;61.71
38786;BME280;24535;45.508;12.252;2024-03-17T02:05:52;102087.41;;;16.44;61.49
38786;BME280;24535;45.508;12.252;2024-03-17T02:08:28;102075.19;;;16.41;61.55
38786;BME280;24535;45.508;12.252;2024-03-17T02:10:54;102080.72;;;16.38;62.19
38786;BME280;24535;45.508;12.252;2024-03-17T02:13:26;102094.75;;;16.40;61.58
38786;BME280;24535;45.508;12.252;2024-03-17T02:16:07;102100.00;;;16.42;61.64
38786;BME280;24535;45.508;12.252;2024-03-17T02:18:39;102089.44;;;16.40;61.94
38786;BME280;24535;45.508;12.252;2024-03-17T02:21:05;102093.06;;;16.39;62.06
38786;BME280;24535;45.508;12.252;2024-03-17T02:23:33;102096.47;;;16.41;61.97
38786;BME280;24535;45.508;12.252;2024-03-17T02:26:04;102088.72;;;16.38;61.47
38786;BME280;24535;45.508;12.252;2024-03-17T02:36:25;102092.34;;;16.37;61.46
38786;BME280;24535;45.508;12.252;2024-03-17T02:38:50;102096.91;;;16.35;61.74
38786;BME280;24535;45.508;12.252;2024-03-17T02:41:50;102098.59;;;16.36;61.43
38786;BME280;24535;45.508;12.252;2024-03-17T02:44:15;102095.19;;;16.34;61.42
38786;BME280;24535;45.508;12.252;2024-03-17T02:46:41;102101.47;;;16.33;61.26
38786;BME280;24535;45.508;12.252;2024-03-17T02:49:06;102097.09;;;16.32;61.98
38786;BME280;24535;45.508;12.252;2024-03-17T02:51:40;102096.03;;;16.35;61.74
38786;BME280;24535;45.508;12.252;2024-03-17T02:54:08;102096.03;;;16.35;62.27
38786;BME280;24535;45.508;12.252;2024-03-17T02:56:34;102095.19;;;16.34;61.64
38786;BME280;24535;45.508;12.252;2024-03-17T02:59:21;102094.34;;;16.34;61.64
38786;BME280;24535;45.508;12.252;2024-03-17T03:07:43;102087.53;;;16.29;62.09
38786;BME280;24535;45.508;12.252;2024-03-17T03:10:08;102083.06;;;16.30;62.27
38786;BME280;24535;45.508;12.252;2024-03-17T03:12:34;102082.22;;;16.29;62.17
38786;BME280;24535;45.508;12.252;2024-03-17T03:15:00;102079.66;;;16.28;61.35
38786;BME280;24535;45.508;12.252;2024-03-17T03:17:25;102081.59;;;16.26;61.69
38786;BME280;24535;45.508;12.252;2024-03-17T03:19:50;102077.97;;;16.27;61.82
38786;BME280;24535;45.508;12.252;2024-03-17T03:22:16;102079.88;;;16.25;61.80
38786;BME280;24535;45.508;12.252;2024-03-17T03:24:59;102087.44;;;16.31;61.71
38786;BME280;24535;45.508;12.252;2024-03-17T03:27:24;102087.44;;;16.31;61.27
38786;BME280;24535;45.508;12.252;2024-03-17T03:30:12;102077.84;;;16.28;61.71
38786;BME280;24535;45.508;12.252;2024-03-17T03:32:40;102082.22;;;16.29;62.05
38786;BME280;24535;45.508;12.252;2024-03-17T03:35:06;102073.50;;;16.27;62.14
38786;BME280;24535;45.508;12.252;2024-03-17T03:37:41;102070.09;;;16.25;61.90
38786;BME280;24535;45.508;12.252;2024-03-17T03:40:15;102078.72;;;16.29;61.88
38786;BME280;24535;45.508;12.252;2024-03-17T03:42:53;102066.59;;;16.25;61.47
38786;BME280;24535;45.508;12.252;2024-03-17T03:45:19;102073.50;;;16.27;61.20
38786;BME280;24535;45.508;12.252;2024-03-17T03:47:59;102070.09;;;16.25;61.05
38786;BME280;24535;45.508;12.252;2024-03-17T03:50:27;102066.69;;;16.23;61.05
38786;BME280;24535;45.508;12.252;2024-03-17T03:52:53;102068.63;;;16.21;61.44
38786;BME280;24535;45.508;12.252;2024-03-17T03:55:30;102068.50;;;16.23;61.55
38786;BME280;24535;45.508;12.252;2024-03-17T03:57:55;102063.38;;;16.20;61.15
38786;BME280;24535;45.508;12.252;2024-03-17T04:00:39;102068.63;;;16.21;61.11
38786;BME280;24535;45.508;12.252;2024-03-17T04:03:05;102063.19;;;16.23;61.70
38786;BME280;24535;45.508;12.252;2024-03-17T04:05:32;102059.66;;;16.22;61.27
38786;BME280;24535;45.508;12.252;2024-03-17T04:08:00;102045.72;;;16.19;61.60
38786;BME280;24535;45.508;12.252;2024-03-17T04:10:29;102048.38;;;16.19;61.20
38786;BME280;24535;45.508;12.252;2024-03-17T04:12:54;102056.25;;;16.20;61.61
38786;BME280;24535;45.508;12.252;2024-03-17T04:15:33;102059.88;;;16.19;61.24
38786;BME280;24535;45.508;12.252;2024-03-17T04:17:59;102064.34;;;16.19;61.60
38786;BME280;24535;45.508;12.252;2024-03-17T04:20:25;102082.00;;;16.20;61.21
38786;BME280;24535;45.508;12.252;2024-03-17T04:22:53;102086.38;;;16.21;61.17
38786;BME280;24535;45.508;12.252;2024-03-17T04:25:24;102091.78;;;16.19;61.48
38786;BME280;24535;45.508;12.252;2024-03-17T04:27:50;102098.91;;;16.19;61.32
38786;BME280;24535;45.508;12.252;2024-03-17T04:30:15;102107.09;;;16.16;61.23
38786;BME280;24535;45.508;12.252;2024-03-17T04:32:41;102122.09;;;16.17;61.10
38786;BME280;24535;45.508;12.252;2024-03-17T04:35:06;102114.34;;;16.14;61.17
38786;BME280;24535;45.508;12.252;2024-03-17T04:37:38;102120.50;;;16.14;61.59
38786;BME280;24535;45.508;12.252;2024-03-17T04:40:06;102115.19;;;16.14;61.09
38786;BME280;24535;45.508;12.252;2024-03-17T04:42:49;102123.88;;;16.16;60.69
38786;BME280;24535;45.508;12.252;2024-03-17T04:45:26;102128.47;;;16.14;60.79
38786;BME280;24535;45.508;12.252;2024-03-17T04:47:52;102133.91;;;16.13;61.09
38786;BME280;24535;45.508;12.252;2024-03-17T04:50:18;102132.09;;;16.13;61.51
38786;BME280;24535;45.508;12.252;2024-03-17T04:52:46;102130.50;;;16.11;60.88
38786;BME280;24535;45.508;12.252;2024-03-17T04:55:18;102133.16;;;16.11;61.30
38786;BME280;24535;45.508;12.252;2024-03-17T04:57:53;102129.75;;;16.09;60.79
38786;BME280;24535;45.508;12.252;2024-03-17T05:00:22;102123.78;;;16.05;61.34
38786;BME280;24535;45.508;12.252;2024-03-17T05:02:50;102132.41;;;16.09;60.89
38786;BME280;24535;45.508;12.252;2024-03-17T05:05:16;102122.81;;;16.06;61.27
38786;BME280;24535;45.508;12.252;2024-03-17T05:07:43;102126.22;;;16.08;61.57
38786;BME280;24535;45.508;12.252;2024-03-17T05:10:09;102127.09;;;16.09;61.23
38786;BME280;24535;45.508;12.252;2024-03-17T05:12:38;102127.31;;;16.05;61.14
38786;BME280;24535;45.508;12.252;2024-03-17T05:15:12;102129.09;;;16.05;61.24
38786;BME280;24535;45.508;12.252;2024-03-17T05:17:37;102133.47;;;16.06;61.09
38786;BME280;24535;45.508;12.252;2024-03-17T05:20:04;102138.78;;;16.06;60.86
38786;BME280;24535;45.508;12.252;2024-03-17T05:22:33;102144.75;;;16.10;61.04
38786;BME280;24535;45.508;12.252;2024-03-17T05:25:07;102139.50;;;16.08;61.06
38786;BME280;24535;45.508;12.252;2024-03-17T05:27:33;102139.50;;;16.08;61.88
38786;BME280;24535;45.508;12.252;2024-03-17T05:29:58;102144.28;;;16.03;61.11
38786;BME280;24535;45.508;12.252;2024-03-17T05:32:24;102142.41;;;16.05;61.11
38786;BME280;24535;45.508;12.252;2024-03-17T05:34:51;102155.69;;;16.05;61.67
38786;BME280;24535;45.508;12.252;2024-03-17T05:37:17;102156.53;;;16.05;61.25
38786;BME280;24535;45.508;12.252;2024-03-17T05:39:57;102164.53;;;16.05;61.71
38786;BME280;24535;45.508;12.252;2024-03-17T05:42:26;102161.09;;;16.03;61.53
38786;BME280;24535;45.508;12.252;2024-03-17T05:44:53;102169.06;;;16.03;61.73
38786;BME280;24535;45.508;12.252;2024-03-17T05:47:19;102178.66;;;16.06;61.80
38786;BME280;24535;45.508;12.252;2024-03-17T05:49:57;102193.00;;;16.03;61.28
38786;BME280;24535;45.508;12.252;2024-03-17T05:52:26;102186.94;;;16.01;61.08
38786;BME280;24535;45.508;12.252;2024-03-17T05:55:03;102189.47;;;16.03;61.49
38786;BME280;24535;45.508;12.252;2024-03-17T06:00:49;102184.28;;;16.01;61.28
38786;BME280;24535;45.508;12.252;2024-03-17T06:03:17;102188.84;;;15.99;61.00
38786;BME280;24535;45.508;12.252;2024-03-17T06:05:43;102176.50;;;15.98;61.36
38786;BME280;24535;45.508;12.252;2024-03-17T06:08:12;102181.09;;;15.96;60.91
38786;BME280;24535;45.508;12.252;2024-03-17T06:10:48;102201.28;;;15.99;61.15
38786;BME280;24535;45.508;12.252;2024-03-17T06:13:31;102207.44;;;15.99;61.14
38786;BME280;24535;45.508;12.252;2024-03-17T06:15:57;102208.28;;;16.00;61.35
38786;BME280;24535;45.508;12.252;2024-03-17T06:18:31;102216.19;;;16.01;61.18
38786;BME280;24535;45.508;12.252;2024-03-17T06:20:56;102201.38;;;15.97;61.53
38786;BME280;24535;45.508;12.252;2024-03-17T06:23:25;102206.50;;;16.00;60.82
38786;BME280;24535;45.508;12.252;2024-03-17T06:25:54;102196.81;;;15.99;61.11
38786;BME280;24535;45.508;12.252;2024-03-17T06:28:20;102190.66;;;15.99;61.25
38786;BME280;24535;45.508;12.252;2024-03-17T06:30:59;102190.94;;;15.94;61.19
38786;BME280;24535;45.508;12.252;2024-03-17T06:33:25;102207.66;;;15.96;61.40
38786;BME280;24535;45.508;12.252;2024-03-17T06:35:54;102202.34;;;15.96;61.29
38786;BME280;24535;45.508;12.252;2024-03-17T06:38:22;102200.53;;;15.97;60.80
38786;BME280;24535;45.508;12.252;2024-03-17T06:40:52;102214.56;;;15.99;61.47
38786;BME280;24535;45.508;12.252;2024-03-17T06:43:18;102211.38;;;15.94;60.98
38786;BME280;24535;45.508;12.252;2024-03-17T06:46:05;102213.38;;;15.90;61.02
38786;BME280;24535;45.508;12.252;2024-03-17T06:48:55;102229.00;;;15.95;61.12
38786;BME280;24535;45.508;12.252;2024-03-17T06:51:23;102230.81;;;15.94;61.21
38786;BME280;24535;45.508;12.252;2024-03-17T06:53:48;102229.97;;;15.94;61.41
38786;BME280;24535;45.508;12.252;2024-03-17T06:56:14;102223.69;;;15.95;61.29
38786;BME280;24535;45.508;12.252;2024-03-17T06:58:39;102224.78;;;15.92;61.51
38786;BME280;24535;45.508;12.252;2024-03-17T07:01:05;102233.28;;;15.97;61.90
38786;BME280;24535;45.508;12.252;2024-03-17T07:03:39;102232.44;;;15.97;62.02
38786;BME280;24535;45.508;12.252;2024-03-17T07:06:14;102229.66;;;15.98;61.48
38786;BME280;24535;45.508;12.252;2024-03-17T07:08:48;102226.03;;;15.99;61.71
38786;BME280;24535;45.508;12.252;2024-03-17T07:11:14;102224.25;;;16.00;62.09
38786;BME280;24535;45.508;12.252;2024-03-17T07:13:43;102219.03;;;15.98;61.72
38786;BME280;24535;45.508;12.252;2024-03-17T07:16:09;102220.72;;;15.99;61.72
38786;BME280;24535;45.508;12.252;2024-03-17T07:18:37;102226.16;;;15.98;61.98
38786;BME280;24535;45.508;12.252;2024-03-17T07:21:04;102235.84;;;15.99;61.54
38786;BME280;24535;45.508;12.252;2024-03-17T07:23:33;102240.19;;;16.00;62.08
38786;BME280;24535;45.508;12.252;2024-03-17T07:26:00;102239.25;;;16.01;62.19
38786;BME280;24535;45.508;12.252;2024-03-17T07:28:35;102249.78;;;16.02;61.66
38786;BME280;24535;45.508;12.252;2024-03-17T07:31:06;102253.22;;;16.04;62.16
38786;BME280;24535;45.508;12.252;2024-03-17T07:33:42;102252.25;;;16.05;62.17
38786;BME280;24535;45.508;12.252;2024-03-17T07:36:11;102251.94;;;16.10;61.97
38786;BME280;24535;45.508;12.252;2024-03-17T07:38:37;102260.88;;;16.09;61.34
38786;BME280;24535;45.508;12.252;2024-03-17T07:41:09;102252.91;;;16.09;62.41
38786;BME280;24535;45.508;12.252;2024-03-17T07:43:37;102248.50;;;16.08;62.06
38786;BME280;24535;45.508;12.252;2024-03-17T07:49:56;102258.00;;;16.12;62.45
38786;BME280;24535;45.508;12.252;2024-03-17T07:52:27;102256.28;;;16.11;61.84
38786;BME280;24535;45.508;12.252;2024-03-17T07:54:53;102257.91;;;16.14;61.46
38786;BME280;24535;45.508;12.252;2024-03-17T07:57:18;102256.22;;;16.13;62.29
38786;BME280;24535;45.508;12.252;2024-03-17T07:59:43;102262.16;;;16.16;62.43
38786;BME280;24535;45.508;12.252;2024-03-17T08:02:09;102260.38;;;16.17;62.15
38786;BME280;24535;45.508;12.252;2024-03-17T08:04:37;102259.50;;;16.16;61.98
38786;BME280;24535;45.508;12.252;2024-03-17T08:07:04;102255.06;;;16.17;62.39
38786;BME280;24535;45.508;12.252;2024-03-17T08:09:29;102255.69;;;16.20;62.74
38786;BME280;24535;45.508;12.252;2024-03-17T08:11:55;102264.22;;;16.25;62.66
38786;BME280;24535;45.508;12.252;2024-03-17T08:14:20;102260.78;;;16.23;62.38
38786;BME280;24535;45.508;12.252;2024-03-17T08:16:47;102262.50;;;16.24;62.69
38786;BME280;24535;45.508;12.252;2024-03-17T08:19:18;102263.25;;;16.26;62.63
38786;BME280;24535;45.508;12.252;2024-03-17T08:21:51;102271.25;;;16.26;62.98
38786;BME280;24535;45.508;12.252;2024-03-17T08:24:19;102267.72;;;16.26;62.96
38786;BME280;24535;45.508;12.252;2024-03-17T08:29:43;102269.53;;;16.25;63.18
38786;BME280;24535;45.508;12.252;2024-03-17T08:32:11;102258.78;;;16.27;62.68
38786;BME280;24535;45.508;12.252;2024-03-17T08:34:40;102256.47;;;16.35;63.04
38786;BME280;24535;45.508;12.252;2024-03-17T08:37:05;102253.72;;;16.37;63.44
38786;BME280;24535;45.508;12.252;2024-03-17T08:39:31;102253.50;;;16.40;63.16
38786;BME280;24535;45.508;12.252;2024-03-17T08:41:56;102247.97;;;16.43;63.49
38786;BME280;24535;45.508;12.252;2024-03-17T08:44:21;102251.28;;;16.46;63.25
38786;BME280;24535;45.508;12.252;2024-03-17T08:46:49;102249.69;;;16.56;63.14
38786;BME280;24535;45.508;12.252;2024-03-17T08:49:24;102243.44;;;16.58;63.14
38786;BME280;24535;45.508;12.252;2024-03-17T08:54:55;102244.69;;;16.65;63.53
38786;BME280;24535;45.508;12.252;2024-03-17T08:57:26;102238.22;;;16.69;63.63
38786;BME280;24535;45.508;12.252;2024-03-17T08:59:55;102246.56;;;16.77;63.30
38786;BME280;24535;45.508;12.252;2024-03-17T09:02:26;102247.31;;;16.79;63.13
38786;BME280;24535;45.508;12.252;2024-03-17T09:04:52;102242.13;;;16.77;64.05
38786;BME280;24535;45.508;12.252;2024-03-17T09:07:17;102227.63;;;16.82;64.26
38786;BME280;24535;45.508;12.252;2024-03-17T09:09:49;102230.69;;;16.88;64.37
38786;BME280;24535;45.508;12.252;2024-03-17T09:12:14;102229.31;;;16.95;63.97
38786;BME280;24535;45.508;12.252;2024-03-17T09:14:40;102227.94;;;17.02;63.98
38786;BME280;24535;45.508;12.252;2024-03-17T09:17:06;102223.97;;;17.08;63.70
38786;BME280;24535;45.508;12.252;2024-03-17T09:19:35;102228.03;;;17.14;64.36
38786;BME280;24535;45.508;12.252;2024-03-17T09:22:18;102228.66;;;17.17;63.90
38786;BME280;24535;45.508;12.252;2024-03-17T09:24:52;102226.53;;;17.22;63.00
38786;BME280;24535;45.508;12.252;2024-03-17T09:27:18;102239.41;;;17.28;62.94
38786;BME280;24535;45.508;12.252;2024-03-17T09:29:53;102230.34;;;17.31;62.85
38786;BME280;24535;45.508;12.252;2024-03-17T09:32:19;102227.56;;;17.33;63.29
38786;BME280;24535;45.508;12.252;2024-03-17T09:34:53;102222.03;;;17.36;62.80
38786;BME280;24535;45.508;12.252;2024-03-17T09:37:28;102221.91;;;17.37;62.65
38786;BME280;24535;45.508;12.252;2024-03-17T09:40:19;102222.53;;;17.41;62.90
38786;BME280;24535;45.508;12.252;2024-03-17T09:42:44;102221.47;;;17.43;62.66
38786;BME280;24535;45.508;12.252;2024-03-17T09:45:14;102212.84;;;17.40;62.67
38786;BME280;24535;45.508;12.252;2024-03-17T09:48:24;102218.81;;;17.43;61.61
38786;BME280;24535;45.508;12.252;2024-03-17T09:51:22;102217.72;;;17.46;62.05
38786;BME280;24535;45.508;12.252;2024-03-17T09:54:53;102214.22;;;17.45;62.67
38786;BME280;24535;45.508;12.252;2024-03-17T09:56:59;102217.72;;;17.46;61.92
38786;BME280;24535;45.508;12.252;2024-03-17T09:59:26;102204.53;;;17.44;62.34
38786;BME280;24535;45.508;12.252;2024-03-17T10:01:52;102209.00;;;17.44;63.00
38786;BME280;24535;45.508;12.252;2024-03-17T10:07:57;102199.06;;;17.46;62.09
38786;BME280;24535;45.508;12.252;2024-03-17T10:10:22;102209.63;;;17.47;62.19
38786;BME280;24535;45.508;12.252;2024-03-17T10:12:53;102206.22;;;17.45;61.97
38786;BME280;24535;45.508;12.252;2024-03-17T10:15:24;102199.31;;;17.43;62.13
38786;BME280;24535;45.508;12.252;2024-03-17T10:17:53;102191.53;;;17.40;62.18
38786;BME280;24535;45.508;12.252;2024-03-17T10:20:21;102194.94;;;17.42;61.98
38786;BME280;24535;45.508;12.252;2024-03-17T10:23:04;102182.47;;;17.42;61.90
38786;BME280;24535;45.508;12.252;2024-03-17T10:25:39;102193.03;;;17.44;62.61
38786;BME280;24535;45.508;12.252;2024-03-17T10:28:17;102198.34;;;17.44;62.34
38786;BME280;24535;45.508;12.252;2024-03-17T10:34:01;102196.66;;;17.43;61.78
38786;BME280;24535;45.508;12.252;2024-03-17T10:36:26;102193.13;;;17.42;62.07
38786;BME280;24535;45.508;12.252;2024-03-17T10:39:01;102190.69;;;17.39;62.00
38786;BME280;24535;45.508;12.252;2024-03-17T10:44:43;102201.13;;;17.42;61.47
38786;BME280;24535;45.508;12.252;2024-03-17T10:47:36;102188.75;;;17.41;61.91
38786;BME280;24535;45.508;12.252;2024-03-17T10:50:25;102183.44;;;17.41;62.32
38786;BME280;24535;45.508;12.252;2024-03-17T10:52:55;102194.84;;;17.43;61.53
38786;BME280;24535;45.508;12.252;2024-03-17T11:01:01;102190.47;;;17.42;62.04
38786;BME280;24535;45.508;12.252;2024-03-17T11:03:38;102188.75;;;17.41;61.96
38786;BME280;24535;45.508;12.252;2024-03-17T11:06:56;102196.66;;;17.43;61.82
38786;BME280;24535;45.508;12.252;2024-03-17T11:12:54;102178.72;;;17.45;62.24
38786;BME280;24535;45.508;12.252;2024-03-17T11:20:34;102174.38;;;17.44;62.20
38786;BME280;24535;45.508;12.252;2024-03-17T11:23:03;102178.63;;;17.46;62.67
38786;BME280;24535;45.508;12.252;2024-03-17T11:28:09;102166.25;;;17.45;62.36
38786;BME280;24535;45.508;12.252;2024-03-17T11:47:08;102149.06;;;17.49;62.59
38786;BME280;24535;45.508;12.252;2024-03-17T11:49:35;102152.59;;;17.50;62.47
38786;BME280;24535;45.508;12.252;2024-03-17T11:52:12;102149.91;;;17.50;61.66
38786;BME280;24535;45.508;12.252;2024-03-17T11:54:47;102153.47;;;17.50;62.54
38786;BME280;24535;45.508;12.252;2024-03-17T11:57:24;102142.06;;;17.48;61.63
38786;BME280;24535;45.508;12.252;2024-03-17T11:59:52;102143.66;;;17.51;62.02
38786;BME280;24535;45.508;12.252;2024-03-17T12:05:19;102124.53;;;17.57;62.03
38786;BME280;24535;45.508;12.252;2024-03-17T12:07:47;102122.00;;;17.55;62.79
38786;BME280;24535;45.508;12.252;2024-03-17T12:10:13;102108.75;;;17.54;62.21
38786;BME280;24535;45.508;12.252;2024-03-17T12:18:36;102105.25;;;17.53;62.33
38786;BME280;24535;45.508;12.252;2024-03-17T12:21:22;102102.38;;;17.57;62.19
38786;BME280;24535;45.508;12.252;2024-03-17T12:23:48;102090.88;;;17.56;62.39
38786;BME280;24535;45.508;12.252;2024-03-17T12:26:19;102089.16;;;17.55;63.01
38786;BME280;24535;45.508;12.252;2024-03-17T12:28:46;102075.09;;;17.53;61.82
38786;BME280;24535;45.508;12.252;2024-03-17T12:31:26;102084.69;;;17.55;62.44
38786;BME280;24535;45.508;12.252;2024-03-17T12:33:51;102074.25;;;17.52;62.68
38786;BME280;24535;45.508;12.252;2024-03-17T12:36:17;102067.94;;;17.53;62.61
38786;BME280;24535;45.508;12.252;2024-03-17T12:38:42;102070.50;;;17.55;62.30
38786;BME280;24535;45.508;12.252;2024-03-17T12:41:19;102068.47;;;17.59;62.62
38786;BME280;24535;45.508;12.252;2024-03-17T12:43:49;102067.00;;;17.54;62.19
38786;BME280;24535;45.508;12.252;2024-03-17T12:46:14;102072.94;;;17.58;61.71
38786;BME280;24535;45.508;12.252;2024-03-17T12:48:59;102062.41;;;17.57;61.87
38786;BME280;24535;45.508;12.252;2024-03-17T12:51:25;102062.41;;;17.57;62.37
38786;BME280;24535;45.508;12.252;2024-03-17T12:54:14;102058.25;;;17.52;62.43
38786;BME280;24535;45.508;12.252;2024-03-17T12:56:39;102049.28;;;17.53;61.97
38786;BME280;24535;45.508;12.252;2024-03-17T12:59:39;102056.34;;;17.54;61.76
38786;BME280;24535;45.508;12.252;2024-03-17T13:05:21;102045.78;;;17.53;61.85
38786;BME280;24535;45.508;12.252;2024-03-17T13:07:52;102032.59;;;17.51;61.99
38786;BME280;24535;45.508;12.252;2024-03-17T13:10:20;102037.78;;;17.53;62.47
38786;BME280;24535;45.508;12.252;2024-03-17T13:12:47;102039.59;;;17.52;61.69
38786;BME280;24535;45.508;12.252;2024-03-17T13:15:19;102042.16;;;17.54;62.35
38786;BME280;24535;45.508;12.252;2024-03-17T13:17:47;102034.50;;;17.49;62.48
38786;BME280;24535;45.508;12.252;2024-03-17T13:20:14;102041.44;;;17.52;62.53
38786;BME280;24535;45.508;12.252;2024-03-17T13:22:41;102037.78;;;17.53;61.83
38786;BME280;24535;45.508;12.252;2024-03-17T13:25:20;102032.59;;;17.51;62.29
38786;BME280;24535;45.508;12.252;2024-03-17T13:27:47;102036.72;;;17.55;61.86
38786;BME280;24535;45.508;12.252;2024-03-17T13:30:25;102027.34;;;17.50;62.40
38786;BME280;24535;45.508;12.252;2024-03-17T13:32:52;102036.81;;;17.54;62.75
38786;BME280;24535;45.508;12.252;2024-03-17T13:35:26;102023.63;;;17.52;61.85
38786;BME280;24535;45.508;12.252;2024-03-17T13:37:52;102024.47;;;17.53;62.75
38786;BME280;24535;45.508;12.252;2024-03-17T13:40:22;102019.38;;;17.50;62.39
38786;BME280;24535;45.508;12.252;2024-03-17T13:42:56;102021.72;;;17.54;62.17
38786;BME280;24535;45.508;12.252;2024-03-17T13:45:24;102027.25;;;17.51;62.38
38786;BME280;24535;45.508;12.252;2024-03-17T13:48:02;102016.59;;;17.51;62.24
38786;BME280;24535;45.508;12.252;2024-03-17T13:50:29;102008.84;;;17.48;62.05
38786;BME280;24535;45.508;12.252;2024-03-17T13:52:57;102012.97;;;17.52;62.27
38786;BME280;24535;45.508;12.252;2024-03-17T13:55:24;101998.19;;;17.48;62.01
38786;BME280;24535;45.508;12.252;2024-03-17T13:58:13;101999.03;;;17.49;62.14
38786;BME280;24535;45.508;12.252;2024-03-17T14:00:38;101994.53;;;17.49;62.52
38786;BME280;24535;45.508;12.252;2024-03-17T14:03:09;101992.72;;;17.50;62.71
38786;BME280;24535;45.508;12.252;2024-03-17T14:05:35;101996.25;;;17.50;63.19
38786;BME280;24535;45.508;12.252;2024-03-17T14:08:01;101992.63;;;17.51;62.30
38786;BME280;24535;45.508;12.252;2024-03-17T14:10:27;101990.31;;;17.47;62.16
38786;BME280;24535;45.508;12.252;2024-03-17T14:12:53;101995.28;;;17.51;62.35
38786;BME280;24535;45.508;12.252;2024-03-17T14:15:19;101992.72;;;17.50;62.13
38786;BME280;24535;45.508;12.252;2024-03-17T14:17:47;101991.78;;;17.51;62.38
38786;BME280;24535;45.508;12.252;2024-03-17T14:20:18;101984.72;;;17.50;62.61
38786;BME280;24535;45.508;12.252;2024-03-17T14:22:46;101984.72;;;17.50;62.05
38786;BME280;24535;45.508;12.252;2024-03-17T14:25:20;101988.97;;;17.52;62.37
38786;BME280;24535;45.508;12.252;2024-03-17T14:27:50;101979.41;;;17.50;62.12
38786;BME280;24535;45.508;12.252;2024-03-17T14:30:22;101977.59;;;17.50;62.86
38786;BME280;24535;45.508;12.252;2024-03-17T14:32:48;101975.78;;;17.51;62.17
38786;BME280;24535;45.508;12.252;2024-03-17T14:35:17;101976.84;;;17.48;62.80
38786;BME280;24535;45.508;12.252;2024-03-17T14:37:43;101981.97;;;17.51;62.38
38786;BME280;24535;45.508;12.252;2024-03-17T14:40:19;101974.06;;;17.50;62.30
38786;BME280;24535;45.508;12.252;2024-03-17T14:42:55;101968.75;;;17.50;62.50
38786;BME280;24535;45.508;12.252;2024-03-17T14:45:21;101965.22;;;17.49;61.83
38786;BME280;24535;45.508;12.252;2024-03-17T14:47:54;101961.72;;;17.49;62.92